Time;durP1;ratioP1;P1;durP2;ratioP2;P2;SDS_P1;SDS_P2;PMS_P1;PMS_P2;Temp;Humidity;BMP_temperature;BMP_pressure;BME280_temperature;BME280_humidity;BME280_pressure;Samples;Min_cycle;Max_cycle;Signal;HPM_P1;HPM_P2
2022/08/09 00:01:38;;;;;;;0.22;0.20;;;22.00;63.50;;;;;;4974774;28;20038;-70
2022/08/09 00:04:04;;;;;;;0.10;0.10;;;22.20;63.30;;;;;;4957014;28;20027;-70
2022/08/09 00:06:30;;;;;;;0.00;0.00;;;22.20;63.20;;;;;;4974669;28;20364;-70
2022/08/09 00:08:56;;;;;;;0.05;0.05;;;22.20;63.20;;;;;;4957084;28;20034;-70
2022/08/09 00:11:23;;;;;;;0.10;0.10;;;22.30;63.10;;;;;;4974134;28;20553;-70
2022/08/09 00:13:50;;;;;;;0.20;0.20;;;22.40;62.90;;;;;;4973925;28;20142;-70
2022/08/09 00:16:17;;;;;;;1.67;0.82;;;22.50;62.80;;;;;;4956664;28;20038;-70
2022/08/09 00:18:43;;;;;;;2.00;0.57;;;22.40;62.80;;;;;;4973789;28;20039;-70
2022/08/09 00:21:09;;;;;;;0.00;0.00;;;22.30;62.30;;;;;;4973082;28;20109;-70
2022/08/09 00:23:36;;;;;;;0.60;0.45;;;22.20;62.70;;;;;;4973613;28;20054;-70
2022/08/09 00:26:02;;;;;;;0.13;0.13;;;22.00;62.90;;;;;;4956438;28;20133;-70
2022/08/09 00:28:28;;;;;;;0.00;0.00;;;22.10;63.50;;;;;;4956798;28;20505;-70
2022/08/09 00:30:55;;;;;;;0.90;0.32;;;22.20;63.10;;;;;;4973687;28;20031;-70
2022/08/09 00:33:21;;;;;;;0.00;0.00;;;22.20;63.60;;;;;;4956590;28;20117;-70
2022/08/09 00:35:47;;;;;;;0.05;0.03;;;22.30;63.10;;;;;;4956345;28;20106;-70
2022/08/09 00:38:13;;;;;;;0.00;0.00;;;22.30;62.90;;;;;;4973987;28;20030;-70
2022/08/09 00:40:40;;;;;;;0.10;0.05;;;22.20;63.00;;;;;;4973468;28;20037;-70
2022/08/09 00:43:06;;;;;;;0.03;0.03;;;22.20;63.50;;;;;;4940079;28;20039;-70
2022/08/09 00:45:32;;;;;;;0.00;0.00;;;22.10;63.50;;;;;;4973752;28;20039;-70
2022/08/09 00:47:58;;;;;;;4.57;0.13;;;22.10;63.60;;;;;;4973952;28;20035;-70
2022/08/09 00:50:24;;;;;;;0.00;0.00;;;22.00;63.60;;;;;;4972618;28;20101;-70
2022/08/09 00:52:51;;;;;;;0.10;0.10;;;22.00;63.80;;;;;;4940224;28;20069;-70
2022/08/09 00:55:18;;;;;;;0.00;0.00;;;22.00;64.00;;;;;;4973899;28;20030;-70
2022/08/09 00:57:44;;;;;;;0.08;0.08;;;22.00;63.90;;;;;;4956385;28;20109;-70
2022/08/09 01:00:11;;;;;;;0.30;0.10;;;22.00;63.90;;;;;;4955677;28;20101;-70
2022/08/09 01:02:48;;;;;;;1.50;0.82;;;22.10;64.30;;;;;;4972614;28;20051;-71
2022/08/09 01:05:23;;;;;;;0.00;0.00;;;22.00;64.10;;;;;;4918854;28;20023;-71
2022/08/09 01:08:02;;;;;;;0.05;0.05;;;22.00;63.80;;;;;;4970421;28;20039;-71
2022/08/09 01:10:40;;;;;;;4.45;0.57;;;21.90;64.40;;;;;;4971437;28;20027;-70
2022/08/09 01:13:35;;;;;;;0.10;0.10;;;21.90;64.60;;;;;;4971421;28;20027;-70
2022/08/09 01:16:04;;;;;;;0.08;0.08;;;21.90;64.60;;;;;;4972025;28;20471;-70
2022/08/09 01:18:33;;;;;;;0.05;0.05;;;21.80;65.50;;;;;;4971592;28;20041;-71
2022/08/09 01:21:31;;;;;;;0.00;0.00;;;21.70;64.90;;;;;;4971815;28;20031;-70
2022/08/09 01:24:12;;;;;;;0.08;0.08;;;21.70;65.30;;;;;;4972706;28;20415;-70
2022/08/09 01:26:59;;;;;;;0.00;0.00;;;21.70;65.40;;;;;;4971540;28;20475;-70
2022/08/09 01:29:41;;;;;;;0.00;0.00;;;21.60;65.50;;;;;;4971474;28;20031;-70
2022/08/09 01:32:11;;;;;;;0.00;0.00;;;21.60;65.70;;;;;;4971456;28;20042;-71
2022/08/09 01:34:39;;;;;;;0.00;0.00;;;21.50;65.90;;;;;;4971228;28;20034;-71
2022/08/09 01:37:09;;;;;;;0.10;0.10;;;21.50;66.10;;;;;;4955347;28;20054;-70
2022/08/09 01:39:39;;;;;;;0.00;0.00;;;21.40;66.10;;;;;;4972408;28;20063;-70
2022/08/09 01:42:07;;;;;;;0.57;0.50;;;21.40;66.40;;;;;;4970961;28;20030;-71
2022/08/09 01:44:33;;;;;;;0.00;0.00;;;21.40;66.50;;;;;;4972722;28;20837;-71
2022/08/09 01:47:02;;;;;;;0.70;0.43;;;21.40;66.50;;;;;;4955097;28;20042;-71
2022/08/09 01:49:33;;;;;;;0.00;0.00;;;21.40;66.50;;;;;;4972075;28;20045;-71
2022/08/09 01:52:06;;;;;;;0.43;0.43;;;21.30;66.60;;;;;;4971111;28;20030;-70
2022/08/09 01:54:40;;;;;;;0.00;0.00;;;21.40;66.70;;;;;;4972505;28;20049;-70
2022/08/09 01:57:22;;;;;;;0.10;0.00;;;21.40;66.70;;;;;;4971179;28;20034;-70
2022/08/09 01:59:54;;;;;;;0.20;0.17;;;21.40;66.60;;;;;;4970940;28;20089;-70
2022/08/09 02:02:26;;;;;;;0.28;0.22;;;21.40;66.80;;;;;;4970410;28;20026;-70
2022/08/09 02:04:55;;;;;;;0.32;0.30;;;21.20;67.10;;;;;;4971509;28;20031;-70
2022/08/09 02:07:25;;;;;;;1.25;0.55;;;21.00;67.40;;;;;;4972423;28;20656;-70
2022/08/09 02:10:06;;;;;;;0.00;0.00;;;21.00;67.80;;;;;;4970617;28;20038;-70
2022/08/09 02:12:33;;;;;;;0.00;0.00;;;21.00;67.90;;;;;;4970943;28;20031;-70
2022/08/09 02:15:04;;;;;;;0.03;0.03;;;21.00;68.50;;;;;;4971087;28;20030;-71
2022/08/09 02:17:31;;;;;;;0.00;0.00;;;21.00;67.70;;;;;;4955058;28;20035;-71
2022/08/09 02:19:57;;;;;;;0.30;0.30;;;21.10;67.80;;;;;;4970495;28;20062;-70
2022/08/09 02:22:48;;;;;;;0.00;0.00;;;21.00;67.60;;;;;;4971917;28;20118;-71
2022/08/09 02:25:23;;;;;;;0.00;0.00;;;21.00;68.10;;;;;;4972272;28;20030;-70
2022/08/09 02:28:02;;;;;;;0.00;0.00;;;20.90;68.10;;;;;;4970823;28;20039;-70
2022/08/09 02:30:44;;;;;;;1.65;0.98;;;20.80;68.30;;;;;;4970639;28;20377;-71
2022/08/09 02:33:18;;;;;;;0.05;0.05;;;20.80;68.50;;;;;;4970502;28;20039;-71
2022/08/09 02:35:46;;;;;;;2.75;0.43;;;20.70;68.50;;;;;;4970919;28;20069;-71
2022/08/09 02:38:19;;;;;;;3.13;1.52;;;20.70;68.90;;;;;;4970633;28;20495;-71
2022/08/09 02:40:45;;;;;;;0.00;0.00;;;20.60;69.00;;;;;;4970687;28;20109;-70
2022/08/09 02:43:12;;;;;;;0.00;0.00;;;20.60;69.10;;;;;;4970432;28;20023;-71
2022/08/09 02:45:42;;;;;;;0.03;0.03;;;20.60;69.20;;;;;;4971113;28;20086;-71
2022/08/09 02:48:14;;;;;;;0.20;0.20;;;20.60;69.20;;;;;;4970512;28;20045;-71
2022/08/09 02:50:49;;;;;;;0.08;0.08;;;20.50;69.60;;;;;;4970341;28;20492;-71
2022/08/09 02:53:26;;;;;;;0.00;0.00;;;20.60;69.60;;;;;;4970637;28;20027;-71
2022/08/09 02:55:57;;;;;;;0.30;0.25;;;20.50;69.60;;;;;;4970417;28;20030;-71
2022/08/09 02:58:26;;;;;;;0.00;0.00;;;20.50;69.70;;;;;;4970874;28;20502;-70
2022/08/09 03:00:54;;;;;;;0.00;0.00;;;20.60;69.60;;;;;;4971639;28;20039;-71
2022/08/09 03:03:22;;;;;;;0.10;0.00;;;20.60;69.40;;;;;;4966346;28;20027;-71
2022/08/09 03:05:50;;;;;;;0.20;0.20;;;20.60;69.80;;;;;;4970123;28;20676;-71
2022/08/09 03:08:17;;;;;;;0.00;0.00;;;20.50;69.90;;;;;;4951217;28;20042;-71
2022/08/09 03:10:45;;;;;;;0.00;0.00;;;20.50;70.20;;;;;;4954294;28;20506;-71
2022/08/09 03:13:15;;;;;;;0.00;0.00;;;20.40;70.20;;;;;;4971278;28;20376;-71
2022/08/09 03:15:42;;;;;;;0.00;0.00;;;20.40;70.60;;;;;;4975466;28;20022;-71
2022/08/09 03:18:10;;;;;;;0.20;0.20;;;20.30;70.80;;;;;;4975110;28;20097;-71
2022/08/09 03:20:37;;;;;;;0.00;0.00;;;20.30;71.10;;;;;;4973646;28;20479;-71
2022/08/09 03:23:04;;;;;;;0.15;0.15;;;20.20;71.30;;;;;;4973380;28;20053;-71
2022/08/09 03:25:31;;;;;;;0.00;0.00;;;20.10;71.50;;;;;;4975232;28;20023;-71
2022/08/09 03:28:00;;;;;;;0.30;0.30;;;20.00;71.80;;;;;;4974061;28;20037;-71
2022/08/09 03:30:27;;;;;;;0.00;0.00;;;20.10;71.80;;;;;;4973364;28;20038;-71
2022/08/09 03:32:55;;;;;;;0.00;0.00;;;20.10;71.80;;;;;;4974897;28;20074;-71
2022/08/09 03:35:20;;;;;;;0.00;0.00;;;20.20;71.70;;;;;;4974259;28;20037;-71
2022/08/09 03:37:47;;;;;;;0.70;0.38;;;20.40;71.50;;;;;;4973744;28;20038;-71
2022/08/09 03:40:14;;;;;;;0.10;0.10;;;20.40;71.20;;;;;;4972971;28;20499;-70
2022/08/09 03:42:40;;;;;;;0.35;0.10;;;20.40;71.20;;;;;;4974629;28;20113;-71
2022/08/09 03:45:06;;;;;;;0.20;0.20;;;20.40;71.20;;;;;;4967914;28;20097;-71
2022/08/09 03:47:32;;;;;;;0.47;0.40;;;20.40;71.30;;;;;;4966909;28;20536;-72
2022/08/09 03:50:01;;;;;;;0.15;0.10;;;20.40;71.50;;;;;;4963258;28;20035;-71
2022/08/09 03:52:28;;;;;;;0.00;0.00;;;20.40;71.80;;;;;;4972682;28;20070;-72
2022/08/09 03:54:55;;;;;;;0.00;0.00;;;20.40;71.70;;;;;;4985402;28;20066;-69
2022/08/09 03:57:21;;;;;;;0.30;0.20;;;20.30;72.10;;;;;;4972962;28;20447;-70
2022/08/09 03:59:50;;;;;;;0.20;0.20;;;20.30;71.60;;;;;;4988519;28;20078;-70
2022/08/09 04:02:18;;;;;;;1.52;1.13;;;20.00;72.10;;;;;;4988584;28;20479;-70
2022/08/09 04:04:44;;;;;;;0.00;0.00;;;20.00;72.50;;;;;;4958441;28;20058;-70
2022/08/09 04:07:10;;;;;;;0.00;0.00;;;19.90;72.80;;;;;;4974118;28;20386;-69
2022/08/09 04:09:36;;;;;;;0.13;0.10;;;19.80;73.00;;;;;;4988505;28;20110;-70
2022/08/09 04:12:10;;;;;;;0.65;0.38;;;19.60;73.30;;;;;;4973514;28;20058;-70
2022/08/09 04:14:39;;;;;;;0.38;0.38;;;19.60;73.60;;;;;;4953332;29;20039;-70
2022/08/09 04:17:06;;;;;;;0.00;0.00;;;19.60;73.80;;;;;;4912540;29;20039;-70
2022/08/09 04:19:32;;;;;;;0.00;0.00;;;19.50;74.20;;;;;;4936952;28;20039;-70
2022/08/09 04:21:59;;;;;;;0.10;0.10;;;19.50;74.20;;;;;;4936621;29;20066;-70
2022/08/09 04:24:25;;;;;;;0.10;0.10;;;19.50;74.40;;;;;;4936743;29;20396;-70
2022/08/09 04:26:53;;;;;;;0.25;0.22;;;19.30;74.40;;;;;;4936571;29;20671;-70
2022/08/09 04:29:19;;;;;;;0.10;0.10;;;19.40;74.80;;;;;;4936995;29;20032;-69
2022/08/09 04:31:45;;;;;;;0.00;0.00;;;19.30;75.10;;;;;;4937066;29;20088;-71
2022/08/09 04:34:11;;;;;;;0.20;0.20;;;19.20;75.20;;;;;;4953302;29;20093;-73
2022/08/09 04:36:37;;;;;;;0.32;0.32;;;19.30;75.20;;;;;;4953952;29;20103;-74
2022/08/09 04:39:09;;;;;;;0.05;0.05;;;19.10;75.30;;;;;;4953337;29;20043;-73
2022/08/09 04:41:35;;;;;;;4.57;0.75;;;19.10;75.70;;;;;;4954041;29;20122;-66
2022/08/09 04:44:04;;;;;;;0.43;0.43;;;19.10;75.80;;;;;;4953667;29;20110;-65
2022/08/09 04:46:29;;;;;;;0.28;0.28;;;19.10;75.80;;;;;;4952730;28;20081;-65
2022/08/09 04:48:55;;;;;;;0.22;0.22;;;19.00;75.90;;;;;;4972666;28;20105;-64
2022/08/09 04:51:21;;;;;;;0.13;0.13;;;19.00;76.30;;;;;;4972587;28;20337;-64
2022/08/09 04:53:47;;;;;;;3.47;0.30;;;18.90;76.70;;;;;;4972872;28;20394;-69
2022/08/09 04:56:13;;;;;;;0.57;0.57;;;18.80;76.90;;;;;;4971925;28;20126;-69
2022/08/09 04:58:38;;;;;;;0.47;0.32;;;18.80;77.20;;;;;;4971681;28;20745;-69
2022/08/09 05:01:04;;;;;;;0.35;0.35;;;18.80;77.40;;;;;;4972534;28;20118;-69
2022/08/09 05:03:30;;;;;;;1.13;1.02;;;18.70;77.50;;;;;;4972305;28;20042;-69
2022/08/09 05:05:56;;;;;;;0.25;0.25;;;18.60;77.30;;;;;;4972869;28;20031;-69
2022/08/09 05:08:22;;;;;;;0.00;0.00;;;18.70;77.90;;;;;;4971257;28;20105;-69
2022/08/09 05:10:47;;;;;;;3.45;0.52;;;18.70;78.00;;;;;;4972515;28;20464;-69
2022/08/09 05:13:13;;;;;;;0.05;0.05;;;18.80;77.90;;;;;;4972462;28;20395;-69
2022/08/09 05:15:39;;;;;;;0.30;0.30;;;18.70;77.80;;;;;;4961751;28;20031;-69
2022/08/09 05:18:05;;;;;;;0.00;0.00;;;18.80;77.80;;;;;;4953309;29;20031;-69
2022/08/09 05:20:31;;;;;;;0.10;0.10;;;18.90;77.60;;;;;;4935459;29;20035;-69
2022/08/09 05:22:58;;;;;;;0.00;0.00;;;18.90;77.60;;;;;;4953046;29;20082;-69
2022/08/09 05:25:23;;;;;;;0.00;0.00;;;19.00;77.10;;;;;;4951459;29;20394;-69
2022/08/09 05:27:49;;;;;;;0.20;0.20;;;19.00;77.20;;;;;;4951885;29;20118;-69
2022/08/09 05:30:16;;;;;;;0.00;0.00;;;19.10;76.90;;;;;;4952450;29;20031;-63
2022/08/09 05:32:43;;;;;;;0.08;0.08;;;19.20;77.00;;;;;;4951500;29;20023;-64
2022/08/09 05:35:10;;;;;;;0.43;0.35;;;19.30;76.60;;;;;;4952054;29;20074;-66
2022/08/09 05:37:36;;;;;;;0.00;0.00;;;19.20;76.30;;;;;;4952664;28;20118;-65
2022/08/09 05:40:04;;;;;;;0.32;0.32;;;19.30;76.40;;;;;;4948077;28;20023;-65
2022/08/09 05:42:30;;;;;;;0.70;0.38;;;19.40;76.50;;;;;;4947943;28;20024;-64
2022/08/09 05:44:56;;;;;;;0.10;0.10;;;19.40;76.20;;;;;;4971674;28;20416;-64
2022/08/09 05:47:24;;;;;;;0.30;0.22;;;19.40;76.30;;;;;;4971856;28;20031;-65
2022/08/09 05:49:51;;;;;;;0.00;0.00;;;19.60;76.00;;;;;;4971519;28;20030;-65
2022/08/09 05:52:18;;;;;;;0.10;0.10;;;19.80;74.90;;;;;;4954101;28;20045;-65
2022/08/09 05:54:44;;;;;;;0.20;0.20;;;20.00;74.40;;;;;;4971668;28;20030;-65
2022/08/09 05:57:09;;;;;;;0.10;0.10;;;20.20;73.90;;;;;;4971294;28;20037;-65
2022/08/09 05:59:35;;;;;;;0.00;0.00;;;20.10;74.00;;;;;;4971293;28;20050;-65
2022/08/09 06:02:01;;;;;;;0.00;0.00;;;20.20;74.30;;;;;;4970942;28;20066;-65
2022/08/09 06:04:27;;;;;;;0.00;0.00;;;20.20;74.00;;;;;;4970851;28;20069;-65
2022/08/09 06:06:52;;;;;;;0.00;0.00;;;20.30;73.80;;;;;;4971806;28;20740;-65
2022/08/09 06:09:19;;;;;;;0.10;0.10;;;20.50;73.30;;;;;;4970916;28;20031;-65
2022/08/09 06:11:45;;;;;;;0.00;0.00;;;20.60;73.30;;;;;;4971526;28;20077;-65
2022/08/09 06:14:11;;;;;;;2.08;0.75;;;20.60;73.60;;;;;;4970999;28;20022;-65
2022/08/09 06:16:37;;;;;;;2.63;1.13;;;20.60;73.20;;;;;;4952480;29;20395;-64
2022/08/09 06:19:03;;;;;;;18.73;0.95;;;20.80;73.10;;;;;;4934700;29;20122;-65
2022/08/09 06:21:29;;;;;;;0.80;0.70;;;20.80;72.50;;;;;;4935282;29;20034;-65
2022/08/09 06:23:55;;;;;;;0.17;0.17;;;21.00;72.50;;;;;;4951859;29;20110;-67
2022/08/09 06:26:22;;;;;;;0.00;0.00;;;21.00;72.10;;;;;;4941585;28;20031;-66
2022/08/09 06:28:56;;;;;;;22.67;1.17;;;21.10;72.70;;;;;;4970167;28;20129;-64
2022/08/09 06:31:21;;;;;;;0.00;0.00;;;21.10;72.00;;;;;;4971740;28;20022;-64
2022/08/09 06:33:47;;;;;;;0.00;0.00;;;21.10;71.80;;;;;;4966916;28;20018;-65
2022/08/09 06:36:13;;;;;;;2.75;0.88;;;21.30;71.70;;;;;;4969663;28;20037;-65
2022/08/09 06:38:39;;;;;;;0.03;0.03;;;21.30;71.60;;;;;;4971120;28;20033;-65
2022/08/09 06:41:06;;;;;;;0.00;0.00;;;21.40;71.40;;;;;;4979155;28;20532;-67
2022/08/09 06:43:32;;;;;;;2.50;0.55;;;21.50;71.20;;;;;;4989221;28;20398;-66
2022/08/09 06:45:57;;;;;;;1.25;0.70;;;21.60;71.20;;;;;;4961487;28;20498;-67
2022/08/09 06:48:24;;;;;;;1.00;0.90;;;21.60;70.90;;;;;;4954120;28;20077;-67
2022/08/09 06:50:50;;;;;;;0.10;0.10;;;21.70;70.90;;;;;;4955372;29;20027;-68
2022/08/09 06:53:16;;;;;;;0.00;0.00;;;21.70;69.90;;;;;;4947738;28;20027;-67
2022/08/09 06:55:42;;;;;;;0.08;0.08;;;21.80;69.70;;;;;;4973424;28;20109;-67
2022/08/09 06:58:08;;;;;;;0.00;0.00;;;21.80;70.10;;;;;;4973790;28;20488;-67
2022/08/09 07:00:35;;;;;;;0.00;0.00;;;21.90;69.60;;;;;;4974435;28;20067;-67
2022/08/09 07:03:01;;;;;;;0.00;0.00;;;21.90;69.90;;;;;;4972055;28;20369;-66
2022/08/09 07:05:27;;;;;;;0.10;0.10;;;22.00;69.40;;;;;;4967713;28;20130;-66
2022/08/09 07:07:55;;;;;;;0.00;0.00;;;22.10;69.30;;;;;;4973297;28;20118;-66
2022/08/09 07:10:22;;;;;;;0.00;0.00;;;22.20;69.20;;;;;;4973792;28;20119;-66
2022/08/09 07:12:49;;;;;;;0.13;0.13;;;22.30;69.10;;;;;;4972359;28;20023;-66
2022/08/09 07:15:15;;;;;;;0.90;0.32;;;22.40;68.30;;;;;;4973530;28;20018;-66
2022/08/09 07:20:18;;;;;;;0.43;0.43;;;22.60;68.50;;;;;;4964816;28;20067;-64
2022/08/09 07:22:45;;;;;;;0.55;0.35;;;22.80;68.40;;;;;;4965518;28;20078;-64
2022/08/09 07:25:11;;;;;;;0.00;0.00;;;22.90;68.20;;;;;;4973409;28;20054;-63
2022/08/09 07:27:38;;;;;;;0.10;0.10;;;23.00;67.90;;;;;;4972450;28;20416;-63
2022/08/09 07:30:04;;;;;;;0.32;0.32;;;23.10;67.30;;;;;;4967583;28;20031;-63
2022/08/09 07:32:30;;;;;;;0.00;0.00;;;23.20;66.90;;;;;;4953672;28;20035;-63
2022/08/09 07:34:56;;;;;;;1.23;0.68;;;23.40;66.60;;;;;;4974014;28;20023;-63
2022/08/09 07:37:29;;;;;;;1.75;0.65;;;23.50;66.00;;;;;;4973752;28;20105;-63
2022/08/09 07:39:57;;;;;;;0.00;0.00;;;23.50;65.40;;;;;;4956086;28;20121;-60
2022/08/09 07:42:26;;;;;;;1.15;0.55;;;23.60;66.20;;;;;;4971561;28;20026;-62
2022/08/09 07:44:51;;;;;;;0.70;0.70;;;23.70;65.80;;;;;;4955164;28;20035;-62
2022/08/09 07:47:18;;;;;;;0.13;0.13;;;23.80;64.70;;;;;;4973171;28;20042;-60
2022/08/09 07:49:44;;;;;;;0.08;0.08;;;23.90;64.30;;;;;;4967881;28;20070;-61
2022/08/09 07:52:10;;;;;;;0.05;0.00;;;24.00;64.00;;;;;;4972712;28;20031;-61
2022/08/09 07:54:37;;;;;;;0.22;0.22;;;24.10;64.10;;;;;;4968789;28;20106;-61
2022/08/09 07:57:03;;;;;;;0.00;0.00;;;24.20;64.20;;;;;;4973791;28;20023;-61
2022/08/09 07:59:29;;;;;;;0.20;0.17;;;24.30;63.60;;;;;;4972045;28;20030;-61
2022/08/09 08:01:55;;;;;;;0.00;0.00;;;24.30;63.50;;;;;;4955939;28;20205;-60
2022/08/09 08:04:23;;;;;;;0.00;0.00;;;24.50;63.40;;;;;;4972564;28;20034;-61
2022/08/09 08:06:49;;;;;;;0.10;0.10;;;24.50;63.50;;;;;;4972401;28;20096;-61
2022/08/09 08:09:16;;;;;;;3.25;0.28;;;24.50;63.70;;;;;;4971790;28;20433;-61
2022/08/09 08:11:42;;;;;;;0.20;0.20;;;24.60;63.70;;;;;;4972478;28;20034;-60
2022/08/09 08:14:08;;;;;;;1.52;1.13;;;24.60;63.60;;;;;;4954810;28;20107;-60
2022/08/09 08:16:34;;;;;;;0.03;0.00;;;24.70;63.70;;;;;;4971621;28;20124;-60
2022/08/09 08:19:00;;;;;;;0.00;0.00;;;24.80;63.70;;;;;;4972655;28;20046;-60
2022/08/09 08:21:26;;;;;;;0.43;0.43;;;24.90;62.80;;;;;;4972247;28;20035;-61
2022/08/09 08:23:52;;;;;;;0.20;0.13;;;25.00;63.40;;;;;;4972645;28;20161;-61
2022/08/09 08:26:18;;;;;;;0.03;0.03;;;25.10;63.10;;;;;;4954750;28;20380;-61
2022/08/09 08:28:44;;;;;;;13.45;0.32;;;25.10;62.90;;;;;;4972902;28;20037;-61
2022/08/09 08:31:09;;;;;;;0.10;0.10;;;25.10;63.00;;;;;;4972873;28;20042;-61
2022/08/09 08:33:35;;;;;;;0.03;0.03;;;25.20;63.20;;;;;;4972404;28;20471;-61
2022/08/09 08:36:01;;;;;;;0.47;0.47;;;25.30;62.90;;;;;;4972601;28;20023;-61
2022/08/09 08:38:30;;;;;;;0.00;0.00;;;25.40;62.70;;;;;;4955452;28;20049;-60
2022/08/09 08:40:57;;;;;;;0.73;0.32;;;25.40;62.90;;;;;;4946695;28;20486;-61
2022/08/09 08:43:25;;;;;;;0.10;0.10;;;25.60;62.60;;;;;;4954767;28;20067;-61
2022/08/09 08:45:56;;;;;;;0.10;0.00;;;25.80;62.40;;;;;;4971859;28;20027;-61
2022/08/09 08:48:23;;;;;;;0.00;0.00;;;25.70;62.00;;;;;;4956149;28;20399;-61
2022/08/09 08:50:49;;;;;;;1.45;0.15;;;25.80;62.00;;;;;;4953599;28;20126;-59
2022/08/09 08:53:15;;;;;;;0.25;0.17;;;25.80;61.90;;;;;;4972330;28;20101;-59
2022/08/09 08:55:45;;;;;;;0.08;0.08;;;25.90;61.60;;;;;;4972015;28;20093;-60
2022/08/09 08:58:11;;;;;;;0.00;0.00;;;26.00;61.50;;;;;;4972360;28;20033;-60
2022/08/09 09:00:39;;;;;;;0.10;0.10;;;26.00;61.80;;;;;;4955158;28;20038;-59
2022/08/09 09:03:04;;;;;;;0.32;0.32;;;26.10;61.50;;;;;;4954324;28;20037;-59
2022/08/09 09:05:31;;;;;;;0.45;0.35;;;26.10;61.30;;;;;;4972356;28;20039;-62
2022/08/09 09:08:01;;;;;;;8.48;0.85;;;26.30;61.20;;;;;;4955073;28;20471;-61
2022/08/09 09:10:29;;;;;;;0.60;0.60;;;26.40;61.40;;;;;;4971541;28;20326;-61
2022/08/09 09:12:55;;;;;;;1.08;0.75;;;26.40;61.00;;;;;;4954023;28;20033;-61
2022/08/09 09:15:21;;;;;;;0.68;0.40;;;26.50;61.00;;;;;;4971963;28;20034;-61
2022/08/09 09:17:47;;;;;;;0.32;0.17;;;26.60;60.90;;;;;;4953852;28;20027;-62
2022/08/09 09:20:14;;;;;;;0.35;0.35;;;26.60;60.60;;;;;;4971729;28;20042;-60
2022/08/09 09:22:59;;;;;;;0.00;0.00;;;26.70;60.90;;;;;;4971331;28;20038;-60
2022/08/09 09:25:40;;;;;;;0.03;0.03;;;26.70;60.90;;;;;;4955708;28;20030;-60
2022/08/09 09:28:08;;;;;;;0.00;0.00;;;26.90;60.10;;;;;;4954560;28;20402;-61
2022/08/09 09:30:52;;;;;;;0.00;0.00;;;27.00;60.10;;;;;;4971344;28;20566;-61
2022/08/09 09:33:18;;;;;;;0.00;0.00;;;27.20;59.70;;;;;;4953137;28;20046;-62
2022/08/09 09:35:53;;;;;;;0.05;0.05;;;27.40;59.40;;;;;;4954441;28;20037;-62
2022/08/09 09:38:22;;;;;;;0.00;0.00;;;27.70;58.90;;;;;;4968728;28;20122;-62
2022/08/09 09:40:48;;;;;;;0.20;0.20;;;27.60;58.00;;;;;;4953876;28;20069;-61
2022/08/09 09:43:19;;;;;;;0.80;0.55;;;27.70;58.00;;;;;;4965897;28;20070;-62
2022/08/09 09:45:52;;;;;;;0.00;0.00;;;27.90;58.60;;;;;;4965753;28;20512;-61
2022/08/09 09:48:20;;;;;;;5.75;0.63;;;28.00;58.30;;;;;;4954231;28;20604;-62
2022/08/09 09:50:49;;;;;;;0.20;0.15;;;28.10;58.10;;;;;;4967867;28;20039;-62
2022/08/09 09:53:23;;;;;;;0.55;0.32;;;28.10;57.70;;;;;;4949642;28;20470;-62
2022/08/09 09:56:01;;;;;;;0.43;0.40;;;28.20;57.40;;;;;;4949998;28;20035;-61
2022/08/09 09:58:47;;;;;;;0.20;0.10;;;28.60;56.60;;;;;;4969272;28;20031;-68
2022/08/09 10:01:19;;;;;;;0.22;0.10;;;28.80;56.30;;;;;;4958174;28;20046;-68
2022/08/09 10:03:48;;;;;;;0.00;0.00;;;28.80;55.50;;;;;;4971231;28;20097;-64
2022/08/09 10:06:15;;;;;;;0.63;0.63;;;28.80;55.00;;;;;;4942763;29;20042;-68
2022/08/09 10:08:42;;;;;;;0.13;0.10;;;28.90;55.80;;;;;;4950295;29;20039;-68
2022/08/09 10:11:28;;;;;;;0.20;0.10;;;29.00;55.50;;;;;;4951096;28;20035;-67
2022/08/09 10:13:54;;;;;;;0.00;0.00;;;29.10;55.40;;;;;;4969888;28;20041;-67
2022/08/09 10:16:36;;;;;;;1.33;1.02;;;29.40;55.40;;;;;;4948391;28;20034;-67
2022/08/09 10:19:08;;;;;;;0.10;0.10;;;29.60;55.60;;;;;;4953404;28;20035;-66
2022/08/09 10:21:48;;;;;;;0.30;0.30;;;29.50;55.30;;;;;;4968063;28;20035;-67
2022/08/09 10:24:17;;;;;;;1.10;0.73;;;29.70;55.80;;;;;;4969505;28;20027;-66
2022/08/09 10:26:45;;;;;;;0.85;0.60;;;29.70;55.50;;;;;;4974796;28;20101;-67
2022/08/09 10:29:12;;;;;;;0.17;0.08;;;29.80;54.90;;;;;;4957094;28;20030;-68
2022/08/09 10:31:40;;;;;;;0.30;0.03;;;29.80;55.20;;;;;;4974213;28;20532;-67
2022/08/09 10:34:10;;;;;;;0.45;0.45;;;30.00;54.40;;;;;;4957754;28;20035;-68
2022/08/09 10:36:38;;;;;;;0.32;0.20;;;30.00;54.30;;;;;;4956851;28;20448;-68
2022/08/09 10:39:04;;;;;;;0.20;0.10;;;30.00;54.80;;;;;;4974520;28;20026;-69
2022/08/09 10:41:30;;;;;;;0.15;0.15;;;29.90;54.40;;;;;;4956874;28;20031;-69
2022/08/09 10:43:56;;;;;;;0.22;0.20;;;30.20;54.70;;;;;;4974728;28;20035;-70
2022/08/09 10:47:12;;;;;;;0.03;0.03;;;30.30;54.10;;;;;;4943904;28;20065;-69
2022/08/09 10:50:04;;;;;;;0.57;0.55;;;30.30;54.00;;;;;;4974443;28;20045;-69
2022/08/09 10:53:06;;;;;;;0.10;0.10;;;30.40;53.90;;;;;;4953039;29;20547;-70
2022/08/09 10:55:34;;;;;;;0.10;0.10;;;30.70;52.70;;;;;;4948534;28;20034;-70
2022/08/09 10:58:00;;;;;;;0.10;0.08;;;31.00;52.20;;;;;;4955636;28;20027;-70
2022/08/09 11:00:41;;;;;;;0.00;0.00;;;30.60;51.80;;;;;;4955753;28;20415;-70
2022/08/09 11:03:21;;;;;;;5.18;0.70;;;30.60;52.00;;;;;;4970510;28;20133;-70
2022/08/09 11:06:15;;;;;;;0.10;0.10;;;31.10;53.00;;;;;;4957447;28;20110;-71
2022/08/09 11:08:43;;;;;;;0.60;0.57;;;31.30;51.50;;;;;;4973822;28;20067;-70
2022/08/09 11:11:09;;;;;;;0.10;0.08;;;31.70;51.20;;;;;;4972045;28;20364;-71
2022/08/09 11:13:35;;;;;;;2.63;0.60;;;31.90;50.60;;;;;;4973871;28;20023;-71
2022/08/09 11:16:35;;;;;;;0.10;0.10;;;31.80;50.50;;;;;;4973498;28;20453;-70
2022/08/09 11:19:01;;;;;;;0.22;0.22;;;31.60;50.40;;;;;;4973656;28;20035;-70
2022/08/09 11:21:56;;;;;;;0.15;0.10;;;31.70;50.40;;;;;;4956463;28;20442;-71
2022/08/09 11:24:22;;;;;;;0.20;0.15;;;31.90;50.60;;;;;;4957497;28;20031;-71
2022/08/09 11:26:49;;;;;;;0.10;0.10;;;31.40;50.80;;;;;;4973387;28;20038;-71
2022/08/09 11:29:54;;;;;;;0.25;0.25;;;31.90;50.30;;;;;;4973851;28;20031;-71
2022/08/09 11:32:38;;;;;;;0.85;0.57;;;31.60;50.60;;;;;;4952885;28;20773;-71
2022/08/09 11:35:27;;;;;;;0.08;0.08;;;31.70;50.10;;;;;;4973957;28;20129;-70
2022/08/09 11:37:59;;;;;;;5.93;0.43;;;32.10;50.00;;;;;;4954009;28;20026;-71
2022/08/09 11:40:31;;;;;;;0.98;0.50;;;32.30;49.90;;;;;;4973232;28;20035;-70
2022/08/09 11:43:00;;;;;;;0.00;0.00;;;32.30;49.60;;;;;;4971445;28;20046;-70
2022/08/09 11:45:31;;;;;;;0.00;0.00;;;31.90;49.60;;;;;;4951209;28;20122;-70
2022/08/09 11:48:15;;;;;;;0.03;0.03;;;31.90;50.20;;;;;;4971806;28;20474;-72
2022/08/09 11:50:55;;;;;;;0.10;0.10;;;32.40;49.30;;;;;;4948173;28;20078;-69
2022/08/09 11:53:33;;;;;;;0.22;0.20;;;31.70;49.40;;;;;;4955785;28;20041;-69
2022/08/09 11:56:25;;;;;;;0.98;0.30;;;32.00;50.50;;;;;;4954774;28;20086;-70
2022/08/09 11:58:58;;;;;;;0.10;0.10;;;32.50;49.60;;;;;;4971959;28;20058;-70
2022/08/09 12:01:42;;;;;;;1.13;0.57;;;32.80;49.50;;;;;;4955954;28;20470;-69
2022/08/09 12:04:10;;;;;;;0.20;0.20;;;33.00;48.70;;;;;;4972173;28;20035;-70
2022/08/09 12:06:37;;;;;;;0.00;0.00;;;32.80;48.70;;;;;;4938175;28;20031;-69
2022/08/09 12:09:07;;;;;;;0.20;0.17;;;32.90;49.10;;;;;;4969898;28;20038;-69
2022/08/09 12:11:33;;;;;;;0.05;0.05;;;33.20;48.40;;;;;;4964794;28;20423;-70
2022/08/09 12:14:05;;;;;;;0.60;0.30;;;33.40;48.70;;;;;;4972768;28;20037;-69
2022/08/09 12:16:38;;;;;;;6.32;0.30;;;33.40;48.40;;;;;;4949115;28;20026;-70
2022/08/09 12:19:07;;;;;;;0.20;0.20;;;33.40;47.90;;;;;;4955097;28;20103;-70
2022/08/09 12:21:54;;;;;;;2.10;0.77;;;33.20;48.70;;;;;;4958206;28;20026;-70
2022/08/09 12:24:23;;;;;;;0.10;0.10;;;33.20;49.80;;;;;;4972531;28;20633;-70
2022/08/09 12:26:51;;;;;;;0.40;0.30;;;32.80;49.00;;;;;;4954066;28;20376;-70
2022/08/09 12:29:19;;;;;;;0.00;0.00;;;33.10;48.90;;;;;;4972402;28;20298;-70
2022/08/09 12:31:48;;;;;;;0.00;0.00;;;33.40;49.30;;;;;;4972078;28;20395;-71
2022/08/09 12:34:30;;;;;;;1.92;1.05;;;33.70;48.80;;;;;;4952714;28;20031;-71
2022/08/09 12:36:55;;;;;;;0.15;0.10;;;33.90;47.70;;;;;;4957424;28;20034;-70
2022/08/09 12:39:22;;;;;;;0.52;0.47;;;33.90;48.30;;;;;;4951327;28;20034;-71
2022/08/09 12:41:48;;;;;;;0.63;0.55;;;33.80;47.70;;;;;;4953285;28;20034;-72
2022/08/09 12:44:14;;;;;;;0.35;0.17;;;34.20;47.20;;;;;;4954761;28;20113;-71
2022/08/09 12:46:43;;;;;;;0.00;0.00;;;34.00;47.90;;;;;;4946226;28;20117;-72
2022/08/09 12:49:10;;;;;;;0.20;0.20;;;34.10;47.60;;;;;;4954866;28;20045;-72
2022/08/09 12:51:37;;;;;;;1.73;0.35;;;34.40;47.10;;;;;;4952267;28;20042;-72
2022/08/09 12:54:05;;;;;;;0.30;0.20;;;34.70;47.10;;;;;;4934165;28;20034;-72
2022/08/09 12:56:32;;;;;;;0.13;0.13;;;34.60;46.90;;;;;;4950762;28;20031;-71
2022/08/09 12:59:15;;;;;;;0.30;0.15;;;34.10;46.70;;;;;;4952257;28;20033;-72
2022/08/09 13:01:47;;;;;;;1.10;1.08;;;34.00;47.40;;;;;;4955077;28;20041;-71